EUROPE TAF - 0947 UTC

RocketRoute Online Flight Planning, FREE trial
Germany   France   Benelux   Austria   Swiss   Spain   Portugal   Italy   Baltic   Nordic   Other

Goto METARs

 

United Kingdom - 23 Oct 2017 - 0947 UTC

ABERDEEN DYCEEGPD230456Z 2306/2406 05006KT 9999 FEW035 BECMG 2306/2309 17012KT TEMPO 2310/2315 18016G26KT 6000 RA BKN008 PROB40 TEMPO 2310/2315 4000 RADZ BKN004
BELFAST ALDERGROVEEGAA230456Z 2306/2406 16013KT 9999 FEW020 SCT030 BECMG 2306/2309 22012KT TEMPO 2306/2309 7000 -RADZ RA BKN008 PROB40 TEMPO 2306/2308 3000 BR BKN003 PROB40 TEMPO 2404/2406 7000 -RA BKN012
BIGGIN HILLEGKB230806Z 2309/2318 20012KT 9999 SCT006 BKN015 BECMG 2309/2310 7000 -DZ BKN006 TEMPO 2309/2318 3000 RADZ BKN003 PROB30 TEMPO 2310/2315 0300 FG BKN001 BECMG 2314/2317 26010KT TEMPO 1718 SCT008
BOURNEMOUTHEGHH230801Z 2309/2318 21008KT 5000 -RA BR BKN005 TEMPO 2309/2312 3000 RADZ BKN004 BECMG 2312/2315 27010KT 9999 NSW SCT020
BRISTOLEGGDAMD 230935Z 2309/2406 21012KT 9999 BKN012 TEMPO 2309/2313 3000 RADZ BKN003 PROB30 2309/2312 0300 FG OVC000 BECMG 2312/2315 27010KT SCT030 BECMG 2315/2318 21005KT BECMG 2321/2324 7000 -RA BKN008 TEMPO 2322/2406 3000 RADZ BKN003 PROB30 TEMPO 2323/2406 0300 FG BKN001
CARDIFFEGFFAMD 230738Z 2307/2406 20008KT 9999 OVC016 TEMPO 2307/2311 6000 RA BR BKN008 PROB40 TEMPO 2307/2310 1200 BR BKN002 BECMG 2311/2313 28012KT BECMG 2313/2317 20005KT TEMPO 2316/2406 8000 -RA BKN010 PROB30 TEMPO 2317/2320 3000 RADZ BR BKN002 PROB30 TEMPO 2320/2402 0600 DZ FG BKN001 BECMG 2403/2406 24015KT
DONCASTER SHEFFIELDEGCN230454Z 2306/2406 17003KT 9999 SCT030 TEMPO 2306/2313 6000 RA -RADZ BKN010 PROB40 TEMPO 2306/2312 BKN006 BECMG 2310/2313 16013KT TEMPO 2401/2406 9000 -RA BKN014
DURHAM TEES VALLEYEGNV230800Z 2309/2318 18008KT 9999 FEW020 TEMPO 2309/2316 8000 -RA BKN009
EAST MIDLANDSEGNXAMD 230859Z 2308/2406 19011KT 9999 SCT007 TEMPO 2308/2316 8000 -RA BKN007 PROB40 TEMPO 2308/2315 3000 RA BR BKN003 BECMG 2313/2316 28012KT BECMG 2316/2319 22005KT TEMPO 2322/2406 8000 -RA BKN010 PROB30 TEMPO 2322/2406 4000 RADZ BR BKN005
EDINBURGHEGPH230456Z 2306/2406 08006KT 9999 FEW025 TEMPO 2307/2313 6000 RA BKN008 PROB30 TEMPO 2307/2310 4000 RADZ BECMG 2309/2312 22012KT PROB30 TEMPO 2316/2319 7000 SHRA PROB40 TEMPO 2404/2406 8000 -RA
EXETEREGTE230801Z 2309/2318 21009KT 9999 FEW005 SCT025 TEMPO 2309/2312 8000 -RA BKN010 PROB30 TEMPO 2309/2311 4000 RADZ BKN005 BECMG 2317/2318 BKN012
FARNBOROUGHEGLF230806Z 2309/2318 20008KT 9999 SCT008 BKN020 BECMG 2309/2310 BKN008 TEMPO 2309/2314 4000 RADZ BKN003 BECMG 2314/2317 26010KT SCT015
GLASGOWEGPFAMD 230828Z 2308/2406 VRB05KT 2000 DZ BKN004 TEMPO 2308/2311 6000 -RADZ BKN008 PROB30 TEMPO 2308/2309 9999 NSW SCT025 BECMG 2309/2312 23010KT 9999 NSW SCT025 PROB40 TEMPO 2313/2318 24015G25KT 7000 SHRA BECMG 2321/2324 17006KT PROB40 TEMPO 2322/2324 17015G25KT 7000 SHRA TEMPO 2404/2406 6000 RA -RADZ BKN012
GUERNSEYEGJB230802Z 2309/2318 24018KT 3000 RADZ BKN003 PROB40 TEMPO 2309/2313 8000 -DZ BKN010 TEMPO 2313/2318 1500 BR BKN001 PROB30 TEMPO 2315/2318 0600 FG BKN000
HUMBERSIDEEGNJ230800Z 2309/2318 19009KT 9999 SCT035 TEMPO 2310/2318 8000 -RA BKN009
INVERNESSEGPE230801Z 2309/2318 24008KT 9999 FEW030 PROB40 TEMPO 2309/2313 6000 RA PROB30 TEMPO 2315/2318 7000 SHRA
JERSEYEGJJ230802Z 2309/2318 24017KT 3000 RADZ BKN003 PROB40 TEMPO 2309/2314 8000 -DZ BKN010 TEMPO 2314/2318 1500 BR BKN001 PROB30 TEMPO 2316/2318 0600 FG BKN000
KIRKWALLEGPAAMD 230928Z 2309/2318 16017KT 9999 SCT015 TEMPO 2309/2315 17020G30KT 4000 RA BKN008 PROB40 TEMPO 2310/2314 2000 +RA BKN004 PROB30 TEMPO 2314/2318 7000 SHRA
LEEDS BRADFORDEGNMAMD 230929Z 2309/2406 18005KT 9999 BKN020 TEMPO 2309/2316 8000 -RA BKN012 PROB30 TEMPO 2309/2316 4000 RADZ BKN008 BECMG 2313/2316 27010KT BECMG 2317/2320 21005KT TEMPO 2402/2406 7000 -RA BKN008
LIVERPOOLEGGPAMD 230859Z 2308/2406 16008KT 9999 SCT010 TEMPO 2308/2316 8000 -RA BKN010 PROB40 TEMPO 2308/2314 4000 RA BR BKN006 BECMG 2310/2313 26012KT BECMG 2314/2317 20005KT PROB30 2323/2403 8000 TEMPO 2403/2406 8000 -RA BKN010 PROB30 TEMPO 2405/2406 4000 RADZ BR BKN008
LONDON CITYEGLC230806Z 2309/2318 23008KT 9999 BKN020 BECMG 2309/2311 BKN012 TEMPO 2310/2317 7000 -RADZ PROB30 TEMPO 2310/2316 4000 RADZ BKN006 TEMPO 1718 SCT012
LONDON GATWICKEGKK230504Z 2306/2412 23007KT 9999 SCT040 BECMG 2306/2309 BKN008 TEMPO 2306/2315 6000 -RA PROB40 TEMPO 2309/2315 3000 RADZ BKN003 BECMG 2315/2318 SCT020 PROB30 TEMPO 2318/2322 4000 BR BKN006 BECMG 2322/2401 4000 BR BKN003 PROB30 TEMPO 2322/2407 0300 FG BKN001 BECMG 2409/2412 9999 NSW SCT025
LONDON HEATHROWEGLL230457Z 2306/2412 28010KT 9999 SCT040 BECMG 2307/2310 21008KT BKN010 TEMPO 2307/2315 6000 -RA PROB40 TEMPO 2308/2315 4000 RADZ BKN005 BECMG 2315/2318 BKN035 PROB30 2322/2403 2000 BR MIFG BKN004 BECMG 2403/2406 3000 RADZ BKN012 TEMPO 2403/2409 BKN004 PROB30 TEMPO 2410/2412 BKN018
LONDON LUTONEGGW230457Z 2306/2406 23008KT 9999 SCT011 BKN033 BECMG 2306/2309 BKN006 TEMPO 2308/2314 5000 RADZ BKN003 PROB30 TEMPO 2309/2313 1400 BR BKN001 BECMG 2313/2315 FEW040 PROB30 2318/2322 2000 BR BECMG 2322/2324 2000 BR BKN004 PROB30 TEMPO 2400/2405 0300 FG OVC000 BECMG 2404/2406 7000 NSW FEW025
LONDON STANSTEDEGSS230457Z 2306/2412 23008KT 9999 BKN040 BECMG 2308/2311 BKN008 TEMPO 2308/2315 5000 RADZ PROB40 TEMPO 2309/2315 3000 BR BKN003 BECMG 2314/2316 FEW040 PROB30 2318/2322 2000 BR BECMG 2322/2324 2000 BR BKN004 PROB30 TEMPO 2400/2406 0300 FG OVC000 BECMG 2405/2407 7000 NSW FEW025 BECMG 2407/2410 9999 TEMPO 2407/2412 -RA BKN009
LYDDEGMD230806Z 2309/2318 28012KT 9999 OVC045 BECMG 2309/2310 22010KT BKN010 TEMPO 2309/2315 7000 -RADZ BKN007 BECMG 2310/2312 23020KT PROB40 TEMPO 2310/2315 3000 RADZ BKN004
MANCHESTEREGCCAMD 230829Z 2308/2412 20005KT 9999 FEW011 TEMPO 2308/2316 8000 -RA BKN014 PROB40 TEMPO 2308/2313 4000 RA BR BKN004 BECMG 2311/2314 27012KT BECMG 2315/2318 20005KT PROB30 2323/2403 5000 BR TEMPO 2403/2412 8000 -RA BKN010 PROB30 TEMPO 2406/2410 3000 RADZ BR BKN005 BECMG 2407/2410 22015KT
MANSTONEGMH 
NEWCASTLEEGNT230454Z 2306/2406 17002KT 9999 SCT025 TEMPO 2306/2314 6000 RA BKN006 BECMG 2312/2315 24010KT
NORWICHEGSH230806Z 2309/2318 25010KT 9999 SCT035 BECMG 2309/2312 17008KT BKN013 TEMPO 2314/2318 4000 RADZ BKN004
PRESTWICKEGPK230454Z 2306/2406 18005KT 9999 SCT030 TEMPO 2306/2310 6000 RA -RADZ BKN007 BECMG 2309/2312 24013KT PROB40 TEMPO 2313/2318 25015G25KT 7000 SHRA BECMG 2321/2324 18006KT PROB40 TEMPO 2321/2324 17015G25KT 7000 SHRA TEMPO 2404/2406 6000 RA -RADZ BKN012
SHOREHAMEGKA230806Z 2309/2318 24013KT 9999 BKN008 TEMPO 2309/2318 4000 -RADZ PROB40 TEMPO 2311/2316 2500 RADZ BKN003 PROB30 TEMPO 1118 24015G28KT
SOUTHAMPTONEGHI230801Z 2309/2318 20006KT 6000 -RA BKN008 TEMPO 2309/2312 4000 RADZ BR BKN004 BECMG 2312/2315 27010KT 9999 NSW SCT025
SOUTHENDEGMC230806Z 2309/2318 23010KT 9999 SCT035 BECMG 2309/2311 BKN012 TEMPO 2309/2318 7000 -RADZ BKN008 PROB30 TEMPO 2311/2317 4000 RADZ BKN004
WICKEGPC230801Z 2309/2318 16020G30KT 9999 FEW012 TEMPO 2309/2314 4000 RADZ BKN006 BECMG 2311/2314 18014KT
GIBRALTARLXGB230754Z 2309/2318 07012KT 9999 FEW012 SCT025 TEMPO 2309/2318 SCT024 PROB30 TEMPO 2309/2312 SCT012 PROB30 TEMPO 2312/2318 08015G25KT PROB30 TEMPO 2316/2318 SCT010

Goto METARs

 

Germany - 23 Oct 2017 - 0947 UTC

BRANDENBURGEDDBAMD 230932Z 2309/2406 24006KT 9999 BKN015 BECMG 2309/2311 BKN012 TEMPO 2309/2315 2000 -RADZ BKN004 BECMG 2315/2317 15004KT BKN015 BECMG 2400/2403 3500 BR BKN004
BREMENEDDWAMD 230924Z 2309/2406 22012KT 9999 BKN015 TEMPO 2309/2311 25015G25KT 4000 -RADZ BKN007 BECMG 2311/2314 29008KT BECMG 2317/2320 25003KT 3500 BR TEMPO 2317/2406 1200 MIFG BKN007 BECMG 2322/2401 17005KT
DRESDENEDDC230500Z 2306/2406 27007KT 9999 BKN030 PROB40 TEMPO 2306/2316 BKN010 BECMG 2315/2317 21005KT TEMPO 2322/2406 3500 -RADZ BKN008
DUSSELDORFEDDL230500Z 2306/2412 24011KT 9999 BKN030 PROB30 TEMPO 2308/2313 27015G25KT BECMG 2317/2320 20006KT BECMG 2321/2324 BKN012 TEMPO 2400/2403 4500 -DZRA BKN008 BECMG 2403/2406 BKN007 BECMG 2409/2412 BKN012
FRANKFURT HAHNEDFHAMD 230602Z 2306/2406 25010KT 9999 BKN020 TEMPO 2306/2310 BKN004 PROB30 TEMPO 2309/2314 27015G25KT BECMG 2318/2321 BKN010 TEMPO 2319/2406 2000 -DZ BR BKN004
FRANKFURT MAINEDDF230500Z 2306/2412 21007KT 9999 SCT040 BECMG 2306/2308 23012KT TEMPO 2306/2315 BKN040 BECMG 2320/2322 21005KT BKN020 TEMPO 2404/2412 BKN010 BECMG 2409/2411 21010KT
HAMBURGEDDH230500Z 2306/2412 20007KT 9999 BKN012 TEMPO 2306/2317 4000 -RADZ BKN007 BECMG 2309/2312 14007KT BECMG 2312/2315 VRB03KT PROB30 TEMPO 2312/2317 SCT015 BECMG 2317/2320 4000 MIFG BKN007 TEMPO 2322/2406 1200 BCFG BKN003 BECMG 2401/2404 15005KT PROB30 TEMPO 2401/2406 0500 FG BKN001 BECMG 2406/2409 18010KT 8000 BECMG 2409/2412 BKN012
HANNOVEREDDV230500Z 2306/2406 24010KT 9999 BKN012 TEMPO 2306/2316 4000 -RADZ BKN007 BECMG 2316/2319 BKN020 PROB30 TEMPO 2320/2406 4000 BR BKN007
HERINGSDORFEDAH230800Z 2309/2318 23006KT 9999 BKN030 BECMG 2311/2314 VRB02KT
KARLSRUHE BADEN BADENEDSB230500Z 2306/2406 22010KT 9999 BKN030
KASSEL CALDENEDVK230800Z 2309/2318 25010KT 9999 BKN020
KOLN BONNEDDK230500Z 2306/2412 25010KT 9999 BKN030 BECMG 2316/2319 20004KT BECMG 2322/2401 14005KT TEMPO 2323/2409 BKN012 PROB30 TEMPO 2403/2406 BKN008
LAAGEETNL230733Z 2308/2317 16005KT 8000 NSW BKN010 TEMPO 2308/2317 15010KT 3000 RA BKN003 BKN020 BY ETGL
LEIPZIG HALLEEDDP230500Z 2306/2406 24011KT 9999 BKN030 PROB30 TEMPO 2308/2312 4500 -RADZ BKN013 BECMG 2315/2317 24006KT TEMPO 2320/2405 4500 -RADZ BKN013
LUBECK BLANKENSEEEDHL230800Z 2309/2318 20005KT 9999 BKN012 BECMG 2309/2312 14005KT TEMPO 2309/2315 4000 RADZ BKN007 PROB40 TEMPO 2309/2313 2000 DZ BKN003 BECMG 2312/2315 VRB03KT TEMPO 2315/2318 3000 BR BKN007
MUNCHENEDDM230500Z 2306/2412 28010KT 9999 BKN025 TEMPO 2306/2308 BKN012 TEMPO 2310/2313 29015G25KT SHRA BKN020TCU BECMG 2318/2320 26005KT BECMG 2402/2404 BKN012 BECMG 2407/2409 BKN020
MUNSTER OSNABRUCKEDDG230500Z 2306/2406 23011KT 9999 BKN025 PROB30 TEMPO 2308/2314 27015G25KT BECMG 2315/2318 25006KT BECMG 2322/2324 19004KT BECMG 2322/2401 BKN011 TEMPO 2401/2406 BKN004
NURNBERGEDDN230500Z 2306/2406 28010KT 9999 BKN045 TEMPO 2306/2308 BKN012 TEMPO 2308/2310 RA BKN012 BECMG 2316/2318 24005KT BECMG 2404/2406 BKN010
PADERBORN LIPPSTADTEDLP230500Z 2306/2406 23012KT 9999 BKN013 BECMG 2306/2309 BKN030 TEMPO 2307/2313 27015G25KT BECMG 2315/2318 27007KT BECMG 2323/2402 20008KT BECMG 2401/2404 BKN012
SAARBRUCKENEDDR230500Z 2306/2406 24007KT 9999 BKN010 TEMPO 2306/2308 BKN008 BECMG 2308/2311 25012KT BKN015 BECMG 2319/2322 22007KT BKN010 TEMPO 2320/2406 2000 -DZ BR BKN004
STUTTGARTEDDS230500Z 2306/2406 23004KT 9999 BKN040 BECMG 2309/2311 26010KT BECMG 2317/2319 23004KT
SYLTEDXW230800Z 2309/2318 06010KT 4000 BR BKN007 TEMPO 2309/2311 2000 -DZ BKN002 BECMG 2311/2313 05005KT 6000 BKN012 TEMPO 2313/2318 BKN020 BECMG 2316/2318 11005KT 4000 BR
TEGELEDDTAMD 230841Z 2308/2406 26007KT 9999 BKN010 TEMPO 2308/2315 4000 -RADZ BKN008 BECMG 2315/2317 VRB02KT BKN015 BECMG 2400/2403 3500 BR BKN004

Goto METARs

 

France - 23 Oct 2017 - 0947 UTC

AIX LES BAINSLFLB230500Z 2306/2406 VRB03KT 9999 BKN035 PROB40 TEMPO 2306/2308 6000 -RA BKN020 BECMG 2308/2310 36006KT
ANGLETLFBZ230500Z 2306/2406 VRB03KT 9999 BKN040 BECMG 2308/2310 09010KT CAVOK
AUVERGNELFLC230800Z 2309/2409 VRB03KT 9999 SCT030 OVC050 BECMG 2312/2315 BKN030 BKN050 BECMG 2403/2406 OVC025
BALE MULHOUSELFSB230500Z 2306/2406 26010KT 9999 FEW020 BKN040 TEMPO 2306/2402 -SHRA PROB40 TEMPO 2306/2309 BKN012 PROB40 TEMPO 2310/2316 28015G25KT 4000 SHRA BECMG 2321/2324 16005KT PROB30 TEMPO 2402/2406 BKN012
BELLEGARDELFBL230500Z 2306/2406 27005KT 9999 BKN030 TEMPO 2306/2309 BKN003 TEMPO 2318/2406 3000 BR BKN003
BIARDLFBI230500Z 2306/2406 24007KT 9999 BKN035 PROB30 2306/2307 VRB02KT 4000 BR
BLAGNACLFBO230500Z 2306/2412 VRB02KT CAVOK BECMG 2309/2311 35005KT BECMG 2322/2401 14003KT TEMPO 2400/2407 4000 BR
BRETAGNELFRBAMD 230904Z 2309/2412 22015KT 9999 BKN010 OVC030 TEMPO 2309/2318 22015G25KT TEMPO 2309/2402 3000 -RA OVC002 BECMG 2410/2412 BKN016
BRONLFLY230500Z 2306/2406 VRB02KT 9999 BKN040 TEMPO 2306/2310 5000 -RA SCT015 BKN030 BECMG 2310/2312 36005KT SCT020 BKN030 PROB30 TEMPO 2402/2406 4000 MIFG
CARPIQUETLFRKAMD 230939Z 2309/2318 22010KT 9999 BKN030 BECMG 2309/2311 BKN013 TEMPO 2309/2311 5000 RADZ TEMPO 2311/2318 3000 RADZ BKN007 PROB30 TEMPO 2312/2316 22015G25KT
COTE D AZURLFMN230800Z 2309/2415 33010KT CAVOK BECMG 2309/2310 18006KT BECMG 2319/2321 33010KT BECMG 2409/2411 18006KT
ENTZHEIMLFST230500Z 2306/2406 25005KT 9999 FEW020 BKN030 TEMPO 2312/2318 -SHRA PROB40 TEMPO 2319/2324 -RA PROB30 TEMPO 2400/2406 BKN006
GARONSLFTW230800Z 2309/2409 35015KT CAVOK TEMPO 2312/2318 02016G26KT BECMG 2323/2401 02015G30KT
LANN BIHOUELFRH230500Z 2306/2406 24013KT 9999 SCT020 BKN035 OVC070 BECMG 2308/2311 SCT007 BKN010 OVC015 TEMPO 2310/2403 23012G22KT 3000 -RADZ BKN005 PROB30 TEMPO 2315/2324 BKN003 OVC005 BECMG 2403/2405 NSW SCT010
LE BOURGETLFPB230500Z 2306/2406 24008KT 9999 FEW008 BKN018 PROB30 TEMPO 2306/2310 4500 -RADZ BKN014 BECMG 2315/2319 BKN011 TEMPO 2315/2406 3000 -RADZ BKN006
LESQUINLFQQ230500Z 2306/2412 22008KT 9999 SCT030 TEMPO 2308/2318 4000 -RA BKN008 OVC020 BECMG 2315/2318 OVC013 TEMPO 2318/2412 2000 DZRA OVC003
LE TOUQUETLFAT230800Z 2309/2318 22008KT 9999 SCT015 BKN020 TEMPO 2309/2310 3000 RA BKN008 OVC020 BECMG 2310/2312 BKN008 OVC013 TEMPO 2310/2318 2000 RADZ OVC005
MEDITERRANEELFMT230800Z 2309/2409 30012KT CAVOK BECMG 2312/2314 02015KT BECMG 2319/2321 30005KT
MERIGNACLFBD230500Z 2306/2412 24005KT 9999 BKN045 PROB30 TEMPO 2306/2307 BCFG BECMG 2317/2319 VRB03KT CAVOK PROB30 TEMPO 2400/2406 0800 BCFG TX19/2313Z TN08/2306Z
NANTES ATLANTIQUELFRS230500Z 2306/2412 21005KT 9999 SCT025 BKN040 TEMPO 2315/2324 -RA BKN013
NAPOLEON BONAPARTELFKJ230800Z 2309/2409 24012KT 9999 FEW033 BECMG 2316/2318 06006KT CAVOK
PARIS CHARLES DE GAULLELFPG230500Z 2306/2412 24008KT 8000 FEW006 BKN016 PROB30 TEMPO 2306/2310 4500 -RADZ BKN012 BECMG 2315/2319 BKN009 TEMPO 2315/2409 3000 -RADZ BKN004 BECMG 2409/2412 BKN016 TX16/2412Z TN10/2306Z
PARIS ORLYLFPO230500Z 2306/2412 26007KT 9999 SCT013 BKN025 BECMG 2311/2314 21010KT 6000 -RA BKN012 TEMPO 2318/2406 2500 RADZ OVC007 BECMG 2406/2409 NSW BKN010
PLEURTUITLFRD230500Z 2306/2406 21008KT 9999 BKN040 PROB30 TEMPO 2306/2310 5000 RA TEMPO 2310/2312 5000 RA BECMG 2310/2312 BKN015 TEMPO 2312/2322 3000 RADZ BKN007 PROB30 TEMPO 2312/2315 22015G25KT BECMG 2322/2324 BKN020 TEMPO 2322/2406 BKN007
PORETTALFKB230800Z 2309/2409 33010KT CAVOK BECMG 2309/2310 33015G25KT BECMG 2315/2317 33010KT BECMG 2407/2409 03010KT TX23/2312Z TN11/2404Z
PROVENCELFML230800Z 2309/2415 33020G35KT CAVOK TEMPO 2311/2320 33031G45KT BECMG 2401/2403 35015KT BECMG 2407/2409 35005KT TX23/2413Z TN11/2404Z
RIVESALTESLFMPAMD 230814Z 2309/2409 31018KT CAVOK TEMPO 2309/2317 32018G30KT TEMPO 2321/2403 33015G30KT BECMG 2404/2406 30008KT
SAINT EXUPERYLFLL230500Z 2306/2412 15004KT 9999 SCT030 BKN060 BECMG 2309/2311 36010KT TEMPO 2400/2409 VRB02KT PROB40 TEMPO 2402/2406 4000 BR
ST JACQUESLFRN230500Z 2306/2406 22007KT 9999 BKN040 PROB30 TEMPO 2306/2310 5000 RA TEMPO 2310/2312 5000 RA BECMG 2310/2312 BKN015 TEMPO 2312/2322 3000 RADZ BKN007 BECMG 2400/2402 BKN020 TEMPO 2322/2406 BKN007
TILLELFOB230500Z 2306/2406 23007KT 9999 BKN030 TEMPO 2306/2315 4000 RA BKN008 BKN030 FM231500 22010KT 9999 OVC008 TEMPO 2315/2406 2000 DZRA OVC003
TOUSSUS LE NOBLELFPN230800Z 2309/2318 24008KT 9999 BKN030 OVC060 TEMPO 2310/2315 4000 -RADZ BKN008 FM231500 21008KT 8000 -DZ BKN006 OVC030 TEMPO 2315/2318 3000 -DZ BKN004
VAL DE LOIRELFOT230500Z 2306/2406 22008KT 9999 SCT013 BKN025 TEMPO 2306/2314 -RA BKN012 TEMPO 2314/2323 3000 RADZ OVC006 BECMG 2400/2403 BKN005

Goto METARs

 

Benelux - 23 Oct 2017 - 0947 UTC

BRUSSELS NATLEBBR230500Z 2306/2412 24009KT 9999 FEW025 BKN040 BECMG 2314/2316 4500 -RADZ BR SCT007 BKN012 TEMPO 2319/2324 2000 DZRA BKN004 PROB30 TEMPO 2402/2408 2000 BR BKN003 PROB30 TEMPO 2408/2411 7000 NSW SCT010 BKN040
BRUSSELS SOUTHEBCI230500Z 2306/2412 24009KT 9999 FEW020 BKN035 BECMG 2313/2315 4000 -RADZ BR SCT005 BKN008 TEMPO 2319/2401 2000 DZRA BKN003 PROB40 TEMPO 2401/2407 1500 BR BKN002 PROB30 TEMPO 2408/2410 6000 NSW SCT008 BKN030
DEURNEEBAW230807Z 2309/2318 25009KT 9999 SCT020 BECMG 2316/2318 4500 -RADZ SCT008 BKN012
LIEGEEBLG230500Z 2306/2412 25009KT 9999 FEW025 SCT040 BECMG 2316/2318 4500 -RADZ BR SCT006 BKN009 TEMPO 2321/2402 2000 DZRA BKN004 PROB30 TEMPO 2402/2407 2000 BR BKN003 BECMG 2407/2409 7000 NSW FEW010 SCT040
OOSTENDEEBOS230500Z 2306/2412 27012KT 9999 SCT020 BKN030 BECMG 2309/2311 21010KT BECMG 2312/2314 4500 -RADZ SCT007 BKN010 PROB40 TEMPO 2314/2318 2500 DZRA BKN004 BECMG 2319/2321 7000 NSW FEW012 SCT040 TEMPO 2320/2403 27010KT TEMPO 2407/2411 3500 RA RADZ BKN006 BECMG 2410/2412 23015G25KT
EINDHOVENEHEH230552Z 2306/2412 23009KT 9999 SCT020 BKN025 BECMG 2315/2318 20006KT BECMG 2317/2320 7000 -RADZ SCT008 BKN010 BECMG 2320/2322 4500 BR DZRA BKN005 TEMPO 2321/2412 3000 DZRA PROB30 TEMPO 2322/2412 1200 +DZRA SCT002 OVC004
EELDEEHGG230452Z 2306/2412 24012KT 9999 BKN020 PROB40 TEMPO 2306/2311 25017G27KT 6000 -RADZ -SHRA BKN012 SCT020TCU BECMG 2309/2311 27013KT BECMG 2316/2319 22005KT BECMG 2321/2324 3500 -DZRA BKN005 BECMG 2401/2403 2000 BR -DZ BKN003 PROB30 TEMPO 2401/2412 5000 BKN005 BECMG 2410/2412 21011KT 5000 BKN005
MAASTRICHTEHBK230452Z 2306/2412 23009KT 9999 BKN035 BECMG 2319/2322 6000 -DZRA BKN007 PROB40 TEMPO 2320/2412 2500 DZ BKN003
ROTTERDAMEHRD230445Z 2306/2412 27013KT 9999 SCT020 BKN040 BECMG 2314/2317 23007KT BECMG 2317/2320 20010KT 6000 -DZRA SCT006 BKN012 TEMPO 2319/2412 3500 DZ BKN006 PROB40 TEMPO 2400/2409 2500 BR BKN004 BECMG 2410/2412 22015KT
SCHIPHOLEHAM230445Z 2306/2412 27014KT 9999 SCT020 BKN040 BECMG 2313/2316 23008KT BECMG 2318/2321 20010KT 6000 -DZRA SCT006 BKN012 TEMPO 2320/2412 3500 DZ BKN006 PROB40 TEMPO 2400/2409 2500 BR BKN004 BECMG 2410/2412 22015KT
LUXEMBOURGELLX230500Z 2306/2412 26008KT 9999 BKN007 TEMPO 2313/2409 2000 -DZRA BKN004 TEMPO 2409/2412 4000 RA BKN006

Goto METARs

 

Austria - 23 Oct 2017 - 0947 UTC

GRAZ INTLLOWG230515Z 2306/2406 15004KT 9999 FEW060 BKN120 TX12/2314Z TN06/2306Z BECMG 2307/2309 33008KT TEMPO 2310/2316 32015G25KT BECMG 2316/2318 CAVOK
INNSBRUCKLOWI230515Z 2306/2406 08005KT 9999 -RA FEW005 SCT015 BKN030 TX09/2314Z TN05/2306Z TEMPO 2306/2308 FEW005 BKN009 PROB30 TEMPO 2306/2322 27007KT RA TEMPO 2403/2406 7000 NSW FEW002 BKN007
KLAGENFURT WORTHERSEELOWK230515Z 2306/2406 32006KT 9999 FEW050 BKN130 TX13/2313Z TN05/2306Z PROB30 TEMPO 2306/2307 0500 BCFG SCT002 TEMPO 2310/2316 34015G25KT BECMG 2317/2319 CAVOK
LINZ INTLLOWL230515Z 2306/2406 27011KT 9999 FEW010 SCT020 BKN040 TX11/2312Z TN08/2405Z TEMPO 2306/2319 29015G25KT -SHRA FEW008 SCT012 BKN020 PROB30 TEMPO 2309/2315 29018G30KT TEMPO 2319/2406 29005KT 8000 -SHRA FEW006 BKN012
SALZBURGLOWS230515Z 2306/2406 29007KT 9999 -RA FEW006 SCT030 BKN050 TX10/2313Z TN07/2306Z TEMPO 2306/2318 30015G25KT 6000 SHRA SCT014 BKN025 TEMPO 2318/2406 4000 RA SCT012 BKN020
VIENNA SCHWECHATLOWW230515Z 2306/2412 32018KT 9999 -RA FEW030 BKN050 TX13/2412Z TN08/2307Z TEMPO 2306/2320 34025G35KT PROB40 TEMPO 2310/2315 SHRA BKN030 BECMG 2318/2320 NSW TEMPO 2409/2412 34020G30KT
W NEUSTADT DIAMOND HQLOAN230800Z 2309/2318 32012KT 9999 FEW030 BKN050 TEMPO 2309/2318 33015G30KT -SHRA FEW020 BKN035
ZELTWEGLOXZ230815Z 2309/2318 06006KT 9999 -SHRA SCT040 BKN050 TEMPO 2309/2316 30015G25KT SCT050 BKN250

Goto METARs

 

Switzerland - 23 Oct 2017 - 0947 UTC

APLNACHLSMA 
BASELLFSB230500Z 2306/2406 26010KT 9999 FEW020 BKN040 TEMPO 2306/2402 -SHRA PROB40 TEMPO 2306/2309 BKN012 PROB40 TEMPO 2310/2316 28015G25KT 4000 SHRA BECMG 2321/2324 16005KT PROB30 TEMPO 2402/2406 BKN012
BERNLSZB230825Z 2309/2318 26005KT 9999 SCT020 BKN045 TEMPO 2309/2318 SHRA
BUOCHSLSZCAMD 230940Z 2309/2318 VRB03KT 9999 -RA FEW008 SCT036 BKN050 PROB30 TEMPO 2309/2312 4000 SHRA BKN009
DUBENDORFLSMD 
EMMENLSME 
GALLEN-ALTENRHEINLSZR230825Z 2309/2318 26010KT 9999 FEW020 BKN040 TEMPO 2309/2318 SHRA PROB30 TEMPO 2309/2312 SCT020TCU
GENEVALSGG230825Z 2309/2415 23006KT 9999 FEW010 BKN040 TX12/2315Z TN06/2405Z TX12/2415Z TEMPO 2309/2316 RA BECMG 2316/2318 VRB03KT BECMG 2409/2411 05007KT
GRENCHENLSZG230825Z 2309/2318 22010KT 9999 -DZ BKN006 PROB30 TEMPO 2309/2315 4000 SHRA BKN004
LES EPLATURESLSGC230825Z 2309/2318 24007KT 9999 OVC009 TEMPO 2309/2318 4000 RA OVC004
LOCARNOLSZLAMD 230722Z 2307/2315 05004KT 9999 FEW080 TEMPO 2309/2315 09015G25KT CAVOK PROB40 TEMPO 2309/2315 09025G35KT
LUGANOLSZA230825Z 2309/2318 35015G25KT CAVOK PROB30 TEMPO 2309/2311 VRB03KT TEMPO 2309/2318 01020G35KT
MEIRINGENLSMM 
PAYERNELSMP 
SAMEDANLSZS230825Z 2309/2318 VRB02KT 6000 -SN SCT035 BKN045 TX04/2314Z TEMPO 2309/2318 34015G25KT PROB40 2309/2318 2000 SHSN BKN012
SIONLSGS230825Z 2309/2318 25005KT 9999 FEW010 SCT030 BKN070 TEMPO 2309/2316 RA
ZURICH-KLOTENLSZH230825Z 2309/2415 25009KT 9999 SCT010 BKN020 TX11/2313Z TN06/2405Z TX15/2414Z TEMPO 2309/2409 RA PROB40 2320/2401 BKN014 BECMG 2412/2415 FEW030

Goto METARs

 

Espana - 23 Oct 2017 - 0947 UTC

ALICANTELEAL230500Z 2306/2406 33005KT 9999 BKN014 TX24/2312Z TN15/2306Z BECMG 2310/2313 12010KT FEW014 BECMG 2318/2320 VRB04KT
ALMERIALEAM230800Z 2309/2409 34006KT 9999 FEW030 TX25/2314Z TN16/2406Z BECMG 2310/2312 09010KT BECMG 2320/2323 35006KT
AVILESLEAS230800Z 2309/2409 VRB05KT CAVOK TX19/2315Z TN10/2406Z TEMPO 2311/2318 07010KT PROB30 TEMPO 2403/2407 3000 BR
BADAJOZLEBZ230500Z 2306/2406 07005KT CAVOK TX25/2315Z TN08/2306Z
BARCELONALEBL230500Z 2306/2406 34010KT 9999 FEW025 TX22/2312Z TN13/2306Z TEMPO 2306/2309 34012G22KT BECMG 2310/2312 20008KT BECMG 2317/2320 34006KT
BILBAOLEBB230500Z 2306/2406 10008KT 9999 FEW030 TX19/2314Z TN08/2406Z PROB30 TEMPO 2306/2307 3000 BR
GRANADALEGR230800Z 2309/2409 VRB02KT CAVOK TX26/2315Z TN10/2406Z PROB30 TEMPO 2316/2318 18010KT
IBIZALEIB230800Z 2309/2409 36004KT 9999 SCT025 TX22/2312Z TN13/2406Z
JEREZLEJR230500Z 2306/2406 36005KT CAVOK TX28/2315Z TN15/2306Z PROB40 TEMPO 2306/2308 4000 BR TEMPO 2315/2319 15010KT
LEONLELN230800Z 2309/2318 VRB02KT CAVOK
MADRIDLEMD230500Z 2306/2412 02003KT CAVOK TX21/2315Z TN07/2307Z
MALAGALEMG230500Z 2306/2406 29005KT 9999 SCT020 TX24/2314Z TN16/2306Z PROB40 TEMPO 2306/2309 BKN014 BECMG 2307/2309 12007KT
MENORCALEMH230800Z 2309/2409 35012KT 9999 SCT020 TX22/2312Z TN14/2406Z TEMPO 2309/2316 33015G25KT BECMG 2318/2321 32006KT
MURCIALELC230500Z 2306/2406 36005KT 9999 SCT020 TX24/2312Z TN16/2406Z BECMG 2309/2311 10010KT BECMG 2317/2319 VRB02KT
PALMA MALLORCALEPA230500Z 2306/2406 VRB04KT 9999 SCT040 TX21/2312Z TN10/2306Z BECMG 2311/2313 22010KT BECMG 2318/2320 VRB04KT
REUSLERS230800Z 2309/2409 VRB04KT 9999 FEW040 TX22/2312Z TN11/2406Z
SANTANDERLEXJ230800Z 2309/2409 VRB04KT CAVOK TX20/2314Z TN10/2405Z TEMPO 2311/2318 04010KT
SANTIAGOLEST230500Z 2306/2406 VRB05KT 8000 NSC TX18/2314Z TN08/2406Z PROB30 TEMPO 2306/2308 0350 BCFG BKN001
SEVILLALEZL230800Z 2309/2409 06008KT CAVOK TX28/2315Z TN16/2406Z
VALENCIALEVCAMD 230802Z 2308/2406 VRB03KT 9999 FEW040 TX23/2312Z TN11/2406Z TEMPO 2308/2312 BKN020 TEMPO 2312/2318 12008KT
VALLADOLIDLEVD230500Z 2306/2406 05005KT CAVOK TX18/2315Z TN05/2306Z
VITORIALEVTAMD 230938Z 2309/2406 VRB04KT 8000 SCT005 TX20/2315Z TN05/2406Z TEMPO 2309/2311 BKN005 TEMPO 2312/2318 03010KT
ZARAGOZALEZG230500Z 2306/2406 29010KT 9999 FEW045 TX21/2313Z TN09/2306Z
GRAN CANARIAGCLP230800Z 2309/2409 04012KT 9999 FEW025 TX26/2313Z TN21/2406Z
LANZAROTEGCRR230800Z 2309/2409 13007KT 9999 FEW025 TX27/2313Z TN21/2406Z
TENERIFE NORTEGCXO230800Z 2309/2409 12007KT 9999 FEW010 BKN020 TX21/2313Z TN16/2406Z BECMG 2315/2318 35010KT PROB30 TEMPO 2309/2312 2500 DZRA BKN005
TENERIFE SURGCTS230800Z 2309/2409 07012KT 9999 SCT030 TX27/2313Z TN21/2406Z

Goto METARs

 

Portugal - 23 Oct 2017 - 0947 UTC

FAROLPFR230500Z 2306/2406 06008KT CAVOK BECMG 2309/2311 12012KT BECMG 2317/2319 01005KT BECMG 2400/2402 06008KT
LISBOALPPT230500Z 2306/2412 34005KT CAVOK BECMG 2306/2308 04007KT BECMG 2315/2318 33010KT BECMG 2400/2403 04007KT
MADEIRALPMA230500Z 2306/2406 02013KT 9999 SCT015 SCT030 TEMPO 2306/2309 BKN015 BECMG 2321/2324 VRB05KT TEMPO 2400/2406 34008KT
PONTA DELGADALPPD230500Z 2306/2406 21015KT 9999 SCT012 BKN030 TEMPO 2306/2406 3000 DZRA BR SCT002 BKN004
PORTOLPPR230500Z 2306/2406 08008KT CAVOK BECMG 2312/2315 32010KT BECMG 2318/2321 08005KT BECMG 2404/2406 11008KT
PORTO SANTOLPPS230500Z 2306/2412 07013KT 9999 SCT015 BKN030 TEMPO 2306/2309 BKN015 BECMG 2403/2405 VRB05KT
SANTA MARIALPAZ230631Z 2306/2412 19013KT 9999 FEW020 SCT045 TEMPO 2306/2406 SCT015 BKN030 PROB30 TEMPO 2312/2406 3000 DZRA BR SCT004 BKN008 BECMG 2406/2408 SCT006 BKN012 TEMPO 2408/2412 2000 DZRA BKN003
SINTRA MILITARLPST230801Z 2309/2318 VRB02KT CAVOK BECMG 2311/2313 01005KT

Goto METARs

 

Italia - 23 Oct 2017 - 0947 UTC

ALGHEROLIEA230500Z 2306/2406 31018G30KT CAVOK BECMG 2312/2314 32015KT BECMG 2319/2321 VRB06KT
BARILIBD230500Z 2306/2406 24010KT CAVOK BECMG 2306/2308 31015KT TEMPO 2312/2318 SHRA BECMG 2318/2320 34018G30KT
BERGAMO ORIO AL SERIOLIME230500Z 2306/2406 36007KT CAVOK
BOLOGNALIPE230500Z 2306/2406 VRB05KT 9999 SCT060
CAPODICHINOLIRN230500Z 2306/2406 26015G25KT CAVOK BECMG 2310/2312 36016G28KT
CATANIA FONTANAROSSALICC230500Z 2306/2406 26013KT 9999 SCT030
CIAMPINOLIRA230500Z 2306/2406 VRB06KT CAVOK BECMG 2306/2308 36016KT BECMG 2318/2320 36006KT
CROTONELIBC 
ELMASLIEE230500Z 2306/2406 32020G30KT CAVOK BECMG 2312/2314 32016KT BECMG 2319/2321 32006KT
FALCONARALIPY230500Z 2306/2406 01016KT 9999 SCT030 TEMPO 2306/2308 TSRA BECMG 2311/2313 33012KT BECMG 2318/2320 VRB05KT
FIUMICINOLIRF230500Z 2306/2412 01018G28KT CAVOK BECMG 2313/2315 36015KT
GENOVA SESTRILIMJ230500Z 2306/2406 01006KT CAVOK
LAMPEDUSALICD230500Z 2306/2406 33020G35KT CAVOK
LINATELIML230500Z 2306/2406 31004KT CAVOK
MALPENSALIMC230500Z 2306/2412 03007KT CAVOK
OLBIA COSTA SMERALDALIEO230500Z 2306/2406 27022G35KT CAVOK BECMG 2309/2311 01013KT BECMG 2319/2321 VRB06KT
PALERMOLICJAMD 230809Z 2308/2406 28025KT 9999 SCT020 BKN040 TEMPO 2308/2318 SHRA
PESCARALIBP230500Z 2306/2406 34018G28KT 9999 SCT040 TEMPO 2306/2316 4000 SHRA BECMG 2316/2318 32010KT
PISALIRP230500Z 2306/2406 10003KT CAVOK BECMG 2309/2311 33013KT TEMPO 2313/2320 34015G25KT BECMG 2321/2323 02005KT PROB30 TEMPO 2401/2406 5000 BR
REGGIO CALABRIALICR230500Z 2306/2406 34016KT CAVOK BECMG 2310/2312 35018G28KT
TORINOLIMF230500Z 2306/2406 34006KT CAVOK
URBELIRU230800Z 2309/2318 36015G25KT CAVOK
VENEZIA TESSERALIPZ230500Z 2306/2412 VRB05KT 9999 SCT060

Goto METARs

 

Baltic - 23 Oct 2017 - 0947 UTC

LENNART MERI TALLINNEETN230530Z 2306/2406 09010KT 9999 SCT020 PROB30 TEMPO 2306/2315 4000 SHRA SCT006 SCT015CB BECMG 2320/2322 16007KT
TARTUEETU 
RIGA INTLEVRA230801Z 2309/2409 09007KT 9999 SCT020 PROB40 TEMPO 2318/2403 3000 BR
LIEPAJA INTLEVLA230803Z 2309/2409 09009KT 9999 SCT020 TEMPO 2309/2315 09012G25KT
KAUNAS INTLEYKA230500Z 2306/2406 09008G18KT 9000 BKN020 TEMPO 2306/2309 5000 RA BR SCT005 BKN015
SIAULIAI INTLEYSA230805Z 2309/2318 08012G22KT 5000 BR OVC003 FM231100 SCT005 OVC010
PALANGA INTLEYPA230502Z 2306/2406 08010G20KT 5000 RA BR OVC015 TEMPO 2306/2312 3000 SHRA BKN005 BKN018CB BECMG 2312/2313 9000 BKN020
VILNIUS INTLEYVI230504Z 2306/2406 10014KT 7000 SCT010 BKN020 TEMPO 2306/2309 BKN005 TEMPO 2400/2406 BKN005
KHRABROVOUMKK230800Z 2309/2409 09005G11MPS 5000 -RA BR BKN005 TEMPO 2309/2313 06006G11MPS 3100 -SHRA BR BKN004 BKN011CB BECMG 2315/2317 BKN007 BKN011 BECMG 2321/2323 9999 NSW BKN012

Goto METARs

 

Nordic - 23 Oct 2017 - 0947 UTC

DENMARK
AALBORGEKYT230830Z 2309/2406 08008KT 9999 BKN025 TEMPO 2309/2311 4000 -RA BR BKN006 TEMPO 2311/2322 7000 BKN012 TEMPO 2322/2406 2500 RADZ BR BKN004
AARHUSEKAHAMD 230718Z 2306/2406 10006KT 9999 FEW008 BKN030 TEMPO 2307/2310 2000 SHRA BR BKN005 TEMPO 2310/2406 BKN010
BILLUNDEKBI230509Z 2306/2406 08008KT 9999 FEW008 BKN030 TEMPO 2306/2309 3000 BR DZ BKN004 TEMPO 2309/2406 BKN008 BECMG 2321/2324 16008KT
BORNHOLM RONNEEKRN230754Z 2309/2318 07005KT 9999 BKN030 TEMPO 2309/2318 BKN010
ESBJERGEKEB230801Z 2309/2318 06008KT 8000 BKN020 TEMPO 2309/2310 4000 BR BKN004 TEMPO 2310/2318 BKN008
KARUPEKKA230830Z 2309/2406 07005KT 9999 SCT030 TEMPO 2309/2312 7000 BKN008 TEMPO 2312/2318 7000 BKN012 TEMPO 2318/2324 2500 BR BKN004 BECMG 2323/2402 16008KT TEMPO 2400/2406 2500 RADZ BR BKN004
KASTRUP COPENHAGENEKCHAMD 230635Z 2306/2406 09010KT 9999 FEW008 BKN030 TEMPO 2306/2310 4000 BR BKN005 TEMPO 2310/2324 BKN010
ODENSEEKOD230858Z 2309/2318 08005KT 8000 BKN030 TEMPO 2309/2318 BKN008
ROSKILDEEKRK230754Z 2309/2318 08006KT 9999 FEW008 BKN030 TEMPO 2309/2311 4000 BR BKN004 TEMPO 2311/2318 BKN008
SKRYDSTRUPEKSP230825Z 2309/2406 08008KT 8000 SCT006 BKN020 TEMPO 2309/2310 2000 -SHRA BR BKN005 FEW020CB TEMPO 2310/2318 4000 -SHRA BKN005 SCT020CB TEMPO 2318/2403 0300 FG BKN002 TEMPO 2403/2406 2500 -RADZ BR BKN004
VAMDRUPEKVD230858Z 2309/2316 06005KT 3000 BR BKN004 BECMG 2309/2311 8000 NSW BKN020 TEMPO 2311/2315 BKN008
SWEDEN
ANGELHOLMESTA230756Z 2309/2318 09008KT 8000 BR BKN004 TEMPO 2309/2313 BKN015 BECMG 2313/2315 BKN020 TEMPO 2315/2318 BKN008
ARE OSTERSUNDESNZ230830Z 2309/2318 12012KT 9999 BKN030 PROB40 2309/2315 2500 -SN VV008
GOTHENBURG CITYESGP 
GOTHENBURG LANDVETTERESGG230530Z 2306/2406 07010KT 9999 BKN012 TEMPO 2306/2308 BKN009 BECMG 2308/2310 BKN040
HALMSTADESMT230756Z 2309/2318 08008KT 9999 BKN008 TEMPO 2309/2312 BKN012 BECMG 2312/2315 BKN015 TEMPO 2315/2318 BKN008
KALMARESMQ230830Z 2309/2318 06009KT 9000 -RA FEW007 BKN020 TEMPO 2309/2310 BKN011
KIRUNAESNQAMD 230923Z 2309/2318 21007KT 9999 BKN004 TEMPO 2309/2318 FEW004
LULEAESPACOR 230831Z 2309/2318 35004KT CAVOK TEMPO 2310/2318 BKN012 RMK MIL
MALMOESMSAMD 230628Z 2306/2406 09008KT 9999 FEW008 BKN030 TEMPO 2306/2307 4000 -RADZ BKN004 TEMPO 2307/2310 2000 BR BKN002 TEMPO 2310/2324 BKN010
SAABESSL230830Z 2309/2318 08013G20KT 9999 BKN030 TEMPO 2309/2318 8000 -SHRA FEW010 BKN018 BECMG 2313/2315 09008G14KT RMK MIL
STOCKHOLM ARLANDAESSA230530Z 2306/2406 04009KT 9999 BKN040 PROB40 2306/2314 RA BKN014
STOCKHOLM BROMMAESSB230830Z 2309/2318 04008KT 9999 SCT020 BKN030 PROB40 2309/2313 RA BKN014
STOCKHOLM SKAVSTAESKN230530Z 2306/2406 05008KT 9999 SCT045 PROB40 2306/2316 RADZ
UMEAESNU230830Z 2309/2318 04006KT 9999 BKN040
VISBYESSV230830Z 2309/2318 10014KT 9999 SCT025
NORWAY
ANDOYAENAN2306/2406 19008KT CAVOK
ALTAENAT230800Z 2309/2318 16008KT CAVOK
AROENHF230800Z 2309/2318 22008KT CAVOK
BARDUFOSSENDU2306/2406 VRB05KT CAVOK
BODOENBO2306/2406 09018KT CAVOK
EVENESENEV230800Z 2309/2318 15008KT CAVOK
FLESLANDENBR2306/2406 09007KT 9999 FEW040 SCT070 BECMG 2316/2318 15012KT TEMPO 2320/2405 15015G25KT RA
FLOROENFL230800Z 2309/2318 10010KT CAVOK
GARDERMOENENGM2306/2406 02005KT 9999 BKN040 BECMG 2402/2404 BKN012 TEMPO 2404/2406 4000 -RADZ BR BKN008
KARMOYENHD230800Z 2309/2318 10005KT CAVOK BECMG 2310/2312 12015KT
KJEVIKENCN230800Z 2309/2318 05015KT 9999 -RA BKN012 TEMPO 2309/2318 SCT012 BKN018 PROB40 TEMPO 2309/2315 06018G28KT
LANGNESENTC2306/2406 20008KT CAVOK
LEIRINENFB 
LONGYEARENSB2306/2406 22009KT 9999 -RA FEW010 BKN030 TEMPO 2306/2315 22015G25KT TEMPO 2306/2315 23025G40KT 4500 RA BKN012 BECMG 2313/2315 28015KT
NARVIK/FRAMNESENNK 
ROROSENRO230800Z 2309/2318 14012KT 9999 BKN030 TEMPO 2309/2318 16015G25KT
RYGGEENRY2306/2406 06008KT 9999 BKN040 BECMG 2403/2405 12010KT TEMPO 2404/2406 BKN012
SOLAENZV2306/2406 09008KT 9999 FEW040 SCT060 BECMG 2318/2320 14020G30KT TEMPO 2321/2405 RA BECMG 2404/2406 16010KT
VAERNESENVA2306/2406 09008KT CAVOK TEMPO 2306/2310 15015G25KT BECMG 2310/2312 16012KT TEMPO 2310/2406 16020G30KT
VIGRAENAL230800Z 2309/2318 16008KT CAVOK
FINLAND
HELSINKIEFET 
TAMPERE PIRKKALAEFTP230831Z 2309/2409 03005KT 9999 SCT010 BKN015 TEMPO 2309/2310 BKN008 TEMPO 2318/2324 BKN012 PROB30 2403/2408 2000 BR BKN003
TURKUEFTU230823Z 2309/2409 07007KT CAVOK PROB30 TEMPO 2403/2406 1000 BR BKN002
ICELAND
AKUREYRIBIAR230759Z 2309/2409 09010KT 9999 -RA FEW025 BKN035 OVC040 TX08/2314Z TN05/2406Z TEMPO 2315/2321 RA BKN015 OVC025 BECMG 2402/2405 03007KT TEMPO 2403/2409 5000 RADZ BKN010 OVC018
EGILSSTADIRBIEG230759Z 2309/2409 13015KT 9999 -RA BKN020 OVC030 TX09/2313Z TN05/2406Z TEMPO 2309/2318 11015G25KT 6000 DZRA BKN012 OVC015 BECMG 2318/2321 13008KT NSW BKN030 BECMG 2401/2404 03010KT 7000 RADZ SCT012 OVC020
KEFLAVIK INTLBIKF230759Z 2309/2409 08012KT 9999 FEW020 SCT035 BKN043 TX09/2315Z TN04/2406Z BECMG 2406/2409 CAVOK
REYKJAVIKBIRK230759Z 2309/2409 08010KT 9999 FEW025 SCT035 BKN045 TX10/2315Z TN03/2406Z BECMG 2406/2409 CAVOK
GREENLAND
ILULISSAT JAKOBSHAVNBGJN230804Z 2309/2318 08012KT 9999 BKN160
KANGERLUSSUAQ S.STROMFBGSFAMD 230907Z 2309/2323 06008KT 9999 BKN020 BECMG 2309/2312 FEW020
KULUSUKBGKK230909Z 2309/2318 VRB08KT 9999 SCT100 TEMPO 2314/2318 -RA BKN060
NARSARSUAQBGBW230941Z 2309/2318 VRB05KT 9999 FEW200
NUUK GODTHAABBGGH230804Z 2309/2318 02010KT 9999 FEW200
PITUFFIK THULEBGTLAMD 230920Z 2309/2415 13025G40KT 4000 BLSN OVC015 620159 520303 QNH2967INS WND 090V160 BECMG 2317/2318 09030G40KT 6000 -SN BLSN SCT020 BKN050 620505 520303 QNH2957INS WND 050V120 BECMG 2323/2324 07035G45KT 3200 -SN OVC010 620109 530303 QNH2929INS WND 040V110 BECMG 2408/2409 08040G50KT 1200 -SN OVC010 620109 560303 QNH2919INS WND 040V120 TXM02/2409Z TNM06/2309Z
SISIMIUT HOLSTEINSBORGBGSS 

Goto METARs

 

Other Airports - 23 Oct 2017 - 0947 UTC

IRELAND
DUBLINEIDW230500Z 2306/2406 19010KT 9999 FEW015 BKN025 BECMG 2306/2309 23014KT TEMPO 2306/2308 5000 -DZ SCT008 BKN010 BECMG 2319/2321 21008KT BECMG 2400/2402 17007KT TEMPO 2404/2406 5000 -RA BKN012 BECMG 2404/2406 20014KT
SHANNONEINN230500Z 2306/2406 23014KT 9999 SCT005 BKN008 BECMG 2307/2309 20010KT SCT012 BKN025 TEMPO 2312/2315 BKN012 BECMG 2318/2321 16008KT BECMG 2401/2403 BKN012 TEMPO 2402/2406 4000 -RA BKN008 BECMG 2404/2406 23016G27KT
CORKEICK230500Z 2306/2406 24009KT 2000 BR -DZ BKN002 PROB30 TEMPO 2306/2307 0800 FG BKN001 BECMG 2306/2308 9999 BKN012 TEMPO 2309/2312 20012KT TEMPO 2312/2317 3000 -DZ BKN005 BECMG 2315/2318 18008KT 3000 BR BKN003 TEMPO 2318/2324 0400 FG -DZ OVC001 BECMG 2400/2403 20016KT TEMPO 2400/2406 0300 FG RADZ OVC001 PROB30 TEMPO 2401/2403 +RA BECMG 2403/2405 23018G30KT
IRELAND WESTEIKNAMD 230928Z 2309/2406 22010KT 9999 SCT012 BKN020 TEMPO 2309/2314 4000 -SHRA BKN004 BECMG 2318/2321 19008KT TEMPO 2320/2324 3000 BR BKN004 BECMG 2401/2403 3000 -RA BKN003 TEMPO 2403/2406 0400 FG -RADZ OVC002 BECMG 2404/2406 21015G26KT
POLAND
LECHA WALESYEPGDAMD 230927Z 2309/2406 VRB05KT 9999 BKN008 BECMG 2318/2320 4000 BR TEMPO 2320/2406 2000 BR BKN002
BALICEEPKKAMD 230858Z 2308/2406 33008KT 8000 BKN040 TEMPO 2309/2319 3000 RA BR BKN012 BECMG 2318/2320 03010KT TEMPO 2319/2406 1600 RA BR BKN004
PYRZOWICEEPKTAMD 230907Z 2309/2406 34010KT 9999 BKN020 TEMPO 2309/2312 BKN007 BECMG 2320/2322 4000 BR BKN007 TEMPO 2322/2406 1600 BR BKN003
MODLINEPMO230530Z 2306/2406 VRB02KT 0600 FG OVC002 PROB40 2306/2308 0300 FG BKN001 BECMG 2308/2310 6000 BKN006 TEMPO 2308/2318 3000 -RA BR BKN004 BECMG 2311/2313 07010KT
LAWICAEPPO230530Z 2306/2406 25008KT 9999 BKN014 TEMPO 2306/2312 2500 -RA BR BKN004 BECMG 2312/2315 BKN020 TEMPO 2318/2406 1400 BR BKN004
WARSAW CHOPINEPWA230530Z 2306/2406 09006KT 3000 BR BKN005 PROB40 2306/2308 1200 BR BKN001 BECMG 2308/2310 6000 PROB40 2308/2316 3000 -RA BR BKN004
GREECE
ELEFTHERIOS VENIZELOSLGAV230500Z 2306/2406 23005KT 9999 FEW025 BECMG 2310/2312 19015KT FEW020 SCT070 TEMPO 2313/2318 22015G25KT PROB30 TEMPO 2315/2321 5000 RA SCT018 BKN070 PROB30 TEMPO 2315/2321 3000 TSRA FEW010 FEW018CB SCT020 BKN070 BECMG 2319/2321 24008KT BECMG 2401/2403 FEW018
NIKOS KAZANTZAKISLGIR230500Z 2306/2406 17008KT 9999 FEW025 BECMG 2306/2308 01008KT BECMG 2316/2318 18012KT FEW020 SCT080 PROB40 TEMPO 2318/2324 5000 RA SCT018 BKN080 PROB30 TEMPO 2318/2321 3000 TSRA FEW010 FEW018CB SCT020 BKN070
KOSLGKO230500Z 2306/2406 VRB03KT 9999 FEW018 PROB40 2306/2309 4000 BR SCT003 BECMG 2307/2309 18012KT BECMG 2316/2318 16012G22KT FEW018 SCT050 TEMPO 2318/2324 16018G28KT PROB40 TEMPO 2320/2406 5000 RA SCT015 BKN025 PROB40 TEMPO 2400/2406 3000 TSRA SCT010 SCT016CB BKN020
MIKONOSLGMK230800Z 2309/2318 19012KT 9999 FEW008 TEMPO 2315/2318 20018G28KT BECMG 2315/2317 BKN030 PROB40 TEMPO 2315/2318 5000 RA
DIAGORASLGRP230500Z 2306/2406 VRB03KT 9999 FEW025 BECMG 2307/2309 15010KT BECMG 2319/2321 15010G20KT FEW018 SCT050 PROB40 TEMPO 2322/2406 5000 RA SCT015 BKN050 PROB40 TEMPO 2400/2406 3000 TSRA SCT010 SCT016CB BKN020
SOUDALGSA230500Z 2306/2406 28012KT 9999 FEW020 BECMG 2313/2315 FEW018 SCT080 PROB40 TEMPO 2315/2324 5000 RA SCT015 BKN070 PROB30 TEMPO 2315/2321 3000 TSRA FEW010 FEW018CB SCT020 BKN070
SANTORINILGSR230500Z 2306/2406 23012KT 9999 FEW025 TEMPO 2309/2406 23012G22KT BECMG 2314/2316 SCT020 BKN035 PROB40 TEMPO 2316/2404 6000 RA PROB40 TEMPO 2318/2404 3000 TSRA FEW018CB BKN020
MAKEDONIALGTSAMD 230715Z 2307/2406 14012KT 9999 SCT025 TEMPO 2307/2324 7000 RA SCT012 BKN025 PROB40 TEMPO 2312/2321 4000 TSRA SCT008 FEW018CB BKN020 BECMG 2321/2323 33015KT BECMG 2401/2403 33020G30KT
TURKEY
ANTALYALTAI230440Z 2306/2406 34006KT CAVOK BECMG 2306/2310 16012KT SCT030 BKN100 BECMG 2316/2320 VRB02KT BECMG 2320/2324 BKN030 BECMG 2400/2404 -SHRA
ATATURKLTBA230440Z 2306/2412 14008KT CAVOK BECMG 2401/2404 SCT030 BKN100 BECMG 2405/2409 -SHRA BKN025 BKN080
ADNAN MENDERESLTBJ230440Z 2306/2406 VRB02KT CAVOK BECMG 2310/2312 18013KT BECMG 2316/2318 SCT030 BKN100 BECMG 2322/2324 -SHRA TEMPO 2401/2404 5000 TSRA SCT015CB BKN025
DALAMANLTBS230440Z 2306/2406 VRB02KT CAVOK BECMG 2306/2308 17012KT FEW030 BKN180
MALTA
LUQA INTLLMML230500Z 2306/2406 33012KT 9999 SCT018 BECMG 2306/2309 31025G35KT TEMPO 2400/2405 8000 SHRA
ISRAEL
BEN GURIONLLBG230503Z 2306/2406 VRB03KT 9999 FEW035 BECMG 2307/2309 30010KT BECMG 2315/2318 VRB04KT TX27/2310Z TN16/2404Z
SDE DOVLLSD230501Z 2306/2406 10005KT 9999 SCT035 BECMG 2307/2309 29010KT FEW035 BECMG 2315/2318 VRB04KT TX26/2311Z TN18/2404Z
MOROCCO
AL MASSIRA INTLGMAD230500Z 2306/2412 12004KT 8000 NSC
MOHAMMED V INTLGMMN230500Z 2306/2412 06008KT 3000 BR BKN006 BECMG 2410/2412 36012KT CAVOK
MENARAGMMX230500Z 2306/2412 04008KT CAVOK TEMPO 2315/2321 34014KT SCT030
EGYPT
CAIRO INTLHECA230500Z 2306/2412 02010KT CAVOK TEMPO 2306/2308 VRB03KT 4000 BR BECMG 2310/2312 9999 FEW025
HURGHADA INTLHEGN230500Z 2306/2412 35008G18KT CAVOK
LUXOR INTLHELX230500Z 2306/2412 36010KT CAVOK TEMPO 2306/2308 VRB03KT 4000 HZ NSC
SHARM EL SHEIKH INTLHESH230500Z 2306/2412 04014KT CAVOK
EAST EUROPE
SOFIALBSF230500Z 2306/2406 11016KT 9999 SCT045 BKN060 TEMPO 2306/2312 5000 RA SCT015 OVC030 TEMPO 2312/2320 3000 SHRA SCT012 SCT027CB BKN040 BECMG 2315/2317 30014KT TEMPO 2320/2403 4000 RA BKN015 OVC025
LARNACALCLK230530Z 2306/2406 07006KT 9999 SCT030 BECMG 2310/2314 20011KT PROB30 TEMPO 2310/2316 FEW030TCU BECMG 2317/2320 31006KT
ZAGREBLDZA230525Z 2306/2406 23007KT 9999 BKN030 OVC040 TX11/2313Z TN07/2404Z PROB30 TEMPO 2306/2315 RA BECMG 2313/2315 32015KT PROB40 TEMPO 2313/2406 23007KT TEMPO 2318/2406 32015G25KT
BUDAPEST LISZT FERENCLHBP230515Z 2306/2406 32013KT 6000 -RA SCT010 BKN020 TEMPO 2306/2312 4000 RA BR BKN004 OVC015 BECMG 2306/2309 33018G34KT TEMPO 2312/2322 9999 FEW015 BKN040 BECMG 2322/2324 33010KT 9999 NSW BKN045 BECMG 2400/2402 CAVOK
LJUBLJANALJLJ230800Z 2309/2409 13003KT 8000 SCT003 SCT250 BECMG 2310/2312 34005KT FEW065 PROB40 TEMPO 2312/2320 34012G22KT TEMPO 2320/2406 34015G28KT BECMG 2407/2409 13005KT
RUZYNELKPR230500Z 2306/2412 28010KT 9999 BKN030 TEMPO 2306/2322 6000 -RA SCT015 BKN016 PROB30 TEMPO 2306/2308 SHRA SCT005 BKN010 TEMPO 2408/2412 7000 RA BKN020
HENRI COANDALROP230500Z 2306/2406 08015KT 9999 BKN005 BECMG 2307/2309 BKN030 BECMG 2317/2319 5000 -RA BKN015 OVC030 BECMG 2322/2324 07018G28KT
BEOGRADLYBE230500Z 2306/2406 27012KT 9999 SCT010 BKN033 TX10/2306Z TN07/2406Z TEMPO 2306/2311 5000 RA BKN006 BKN030 BECMG 2317/2319 34016KT 5000 RA BKN008 BKN027
M R STEFANIK INTLLZIB230500Z 2306/2406 33012KT 9999 -RA FEW010 BKN050 PROB30 TEMPO 2306/2318 5000 RA BKN010 OVC030 TEMPO 2306/2406 34016G28KT BECMG 2317/2319 NSW SCT030 BKN080 BECMG 2321/2323 CAVOK
BORYSPIL INTLUKBB230500Z 2306/2406 11005G10MPS 9999 BKN020 TEMPO 2320/2406 08005MPS 1000 BR BKN005 TX07/2312Z TNM02/2404Z
PULKOVOULLI230800Z 2309/2409 01003MPS 9999 SCT011 BKN020 TEMPO 2309/2318 33003MPS 3100 -SHRASN BKN011 BKN020CB TEMPO 2318/2406 VRB01MPS 3100 BR BKN011 BKN020 BECMG 2406/2407 32003MPS
MURMANSKULMM230755Z 2309/2409 28003G08MPS 9999 BKN011 TEMPO 2309/2315 31003MPS 3100 -SHSNRA BKN011CB TEMPO 2315/2409 26003MPS 1000 -SHSNRA BR SCT006 BKN011CB
KHRABROVOUMKK230800Z 2309/2409 09005G11MPS 5000 -RA BR BKN005 TEMPO 2309/2313 06006G11MPS 3100 -SHRA BR BKN004 BKN011CB BECMG 2315/2317 BKN007 BKN011 BECMG 2321/2323 9999 NSW BKN012
SHEREMETYEVOUUEE230800Z 2309/2409 34006MPS 9000 BKN010 TX01/2312Z TNM03/2403Z TEMPO 2309/2318 3000 -SN SCT005 BECMG 2318/2320 VRB01MPS TEMPO 2400/2406 1000 -SN BR SCT002 OVC006
VNUKOVOUUWW230759Z 2309/2409 34005MPS 9999 BKN008 TX02/2312Z TNM03/2403Z TEMPO 2309/2315 1400 SHSN BKN004 BKN012CB TEMPO 2318/2406 1000 BR BKN004



RocketRoute Online Flight Planning. FREE trial

ABBREVIATIONS

-light
+heavy
/visual range follows
A01autosite - no precip sensor
A02autosite - precip sensor
ACaltocumulus
ACCaltocumulus castellanus
ACSLaltocumulus standing lenticular cloud
AMDamended
ASaltastratus
ASRaltimeter setting region
AUTOautomated report
BCpatches
BECMGbecoming
BKNbroken (5-7 oktas)
BLblowing
BLWbelow
BRmist
BTNbetween
CAVOK+10KM NoCBs NoCloud -5000ft
CBcumulonimbus cloud
CBMAMcumulonimbus mammatus cloud
CCcloud-cloud lightning
CCSLcirrocumulus standing lenticular cloud
CGcloud-ground lightning
CHIcloud-height indicator
CHINOsky condition at 2nd location not avail
CIcirrus
CIGceiling
CITnear or over large towns
CLDcloud
CLRclear
CLRDcleared contamination
CONScontinuous
CORcorrection
CScirrostratus
CUcumulus
DRVR visibility going down
DPdew point
DRlow drifting
DSduststorm
DSNTdistant
DUwidespread dust
DUCdense upper cloud
DZdrizzle
Eeast
EMBDembedded
FCfunnel cloud
FCSTforecast
FEWfew clouds (1-2 oktas)
FGfog
FLflight level
FMfrom
FROPAfrontal passage
FRQfrequent
FTfeet
FUsmoke
FZfreezing
FZRANOfreezing rain sensor out
Ggust
GRhail
GSsmall hail
HVYheavy
HZhaze
ICice crystals, in-cloud lightning
INTSFintensifying
IRVRinstrumented RVR
ISOLisolated
JTSTjet stream
KMkilometer
KMHkilometer per hour
KTknots
Lleft runway
LANinland or over land
LASTlast observation before break
LCAlocally
LDGlanding
LSTLocal Standard Time
LSQline squall
LTGlightning
LVlight and variable
LWRlower
Mminus
MBmillibars
METARaviation routine weather
MIshallow
MODmoderate
MONabove or covering mountains
MOVmoved/moving/movement
MPSmeters per second
MSminus
MSLmean sea level
MTmountains
MTWmountain waves
Nnorth
N/Anot applicable
NATnorth atlantic
NCDno cloud detected
NDVno directional variation
NSWno significant weather
NEnortheast
NOSIGno significant change expected
NOSPECIno SPECI reports are taken
NWnorthwest
NSCno significant cloud
NSWno significant weather
OCNLoccasional
OVCovercast (8 oktas)
OHDoverhead
Pgreater than (plus)
PEice pellets
PK WNDpeak wind
PNOprecipitation amount not available
POdust/sand whirls (dust devils)
PRpartial
PROP30probability 30%
PROP40probability 40%
PRESFRpressure falling rapidly
PRESRRpressure rising rapidly
PSplus
PWINOprecipitation identifier sensor not avail
PYspray
Rright runway
RArain
RMKremarks
RRRocket Route
RVRRunway Visual Range
RWYrunway
RVRNORVR system not available
Ssouth
SAsand
SCSLstratocumulus standing lenticular cloud
SCTscattered (3-4 oktas)
SEsoutheast
SEVsevere
SFCsurface
SGsnow grains
SHshower(s)
SKCsky clear
SLPsea-level pressure
SLPNOsea-level pressure not available
SMstatute miles
SNsnow
SNOCLOrunway closed due to contamination
SNINCRsnow increasing rapidly
SPECIan unscheduled report taken
SQsqualls
SSsandstorm
STNRstationary
SWsouthwest
TAFterminal aerodrome forecast
TKOFtakeoff
TCUtowering cumulus
TLuntil
TOPcloud top
TROPtropopause
TSthunderstorm
TSNOthunderstorm information not available
TWRtower
URVR visibility going up
UPunknown precipitation
UTCtCoordinated Universal Time
Vvariable
VAvolcanic ash
VCin the vicinity
VISvisibility
VISNOvisibility at secondary location not avail
VRBvariable
VSPvertical speed
VVvertical visibility
Wwest
WG/SOWorking Group for Surface Observations
WNDwind
WSPDwind speed
WSwind shear
WSHFTwind shift
WXweather
Zzulu utc time

RUNWAY REPORTS

METAR Runway Reports may include runway reports which contain information about snow/water coverage and friction coefficient.
A runway report consists of eight digits in five groups (RRRRERCReReRBRBR) with the following interpretation:

RRRR

Runway designator. The numerical identifier of the runway in question.
88 means all runways, 99 indicates repetition of previous report.

If there are two parallel runways, the right one is indicated by adding 50
to its number. For example, runway 04L (or 04) is denoted by 04, whereas 54 means runway 04R.

ER

Type of deposit on runway.

CR

Extent of deposit.

eReR

Depth of deposit.

BRBR

Friction coefficient or braking action

Note: CLRD may replace elements t, e and dd if the runway has been cleared of deposits. For example, 54CLRD95 means runway 04R cleared, braking action good.


Military METAR Colour Codes

BlackAirfield closed for non-Met reasons
RED RedCloud under 200ft, and/or Visibility under 800m
AMB AmberBetter than Red, but cloud under 300ft, and/or Visibility under 1600m
YLO YellowBetter than Amber, but cloud under 700ft, and/or Visibility under 3700m.
GRE GreenBetter than Yellow, but cloud under 1500ft, and/or Visibility under 5km
WHT WhiteBetter than Green, but Cloud under 2500ft, and/or Visibility under 8km
BLU BlueCloud 2500ft or above and Visibility 8km or more
Cloud in this case is the lowest cloudbase designated as SCATTERED or worse.


NOTE use of any of these pages are your own responsibility
Always double check with other sources.